NCAR-RAP Real-Time Weather Data

Output produced by METARs form (20 February 2019  18:02 UTC)
found at http://weather.rap.ucar.edu/surface/
 
ROMY 201100Z 20006KT 9999 FEW012 SCT040 23/22 Q1020
ROMY 201000Z 20008KT 9999 FEW015 SCT040 24/22 Q1019
ROMY 200900Z 19012KT 9999 FEW018 24/22 Q1019
ROMY 200800Z 19014KT 9999 FEW015 25/22 Q1018
ROMY 200700Z 19013KT 9999 FEW015 BKN048 26/22 Q1018
ROMY 200600Z 20015KT 9999 FEW012 SCT070 26/22 Q1019
ROMY 200500Z 20015KT 9999 SCT010 BKN070 26/22 Q1019
ROMY 200400Z 18014KT 9999 FEW009 BKN013 BKN070 26/22 Q1020
ROMY 200300Z 17012KT 9999 SCT010 SCT018 BKN090 25/22 Q1021
ROMY 200200Z 15009KT 9999 FEW010 SCT020 BKN090 26/22 Q1021
ROMY 200100Z 14009KT 9999 FEW016 BKN100 24/22 Q1021
ROMY 200000Z 12006KT 9999 SCT014 BKN090 23/22 Q1021
ROMY 192300Z 12007KT 9999 FEW020 BKN090 22/21 Q1020
ROMY 192200Z 12007KT 9999 FEW020 BKN090 21/21 Q1020
ROMY 192130Z 12007KT 9999 FEW018 BKN090 21/21 Q1019
ROMY 191112Z 01005KT 350V050 5000 -SHRA BR FEW005 SCT010 BKN018 FEW020TCU 21/21 Q1020 RMK 2ST005 3CU010 5CU018 2TCU020 A3012 TCU OHD MOV E
ROMY 191100Z 35008KT 310V040 2000 R22/0800VP1800D +SHRA FEW005 BKN007 BKN015 FEW020TCU 21/20 Q1019
ROMY 191041Z 32007KT 240V020 4000 SHRA BR FEW005 BKN007 BKN015 FEW020TCU 22/21 Q1019 RMK 1ST005 5ST007 6CU015 2TCU020 A3010 9999E-S TCU 3KM W-NE MOV E
ROMY 191012Z 05007KT 360V090 8000 VCSH FEW005 BKN007 BKN017 FEW020TCU 22/21 Q1018 RMK 1ST005 5ST007 6CU017 2TCU020 A3009 TCU 7KM NW-NE MOV E
ROMY 191000Z VRB07KT 8000 VCSH FEW005 SCT010 BKN017 FEW020TCU 23/21 Q1018
ROMY 190900Z 20010KT 9999 VCSH FEW007 BKN017 FEW020TCU BKN060 25/23 Q1018
ROMY 190800Z 21013KT 9999 VCSH FEW008 FEW020TCU SCT023 BKN060 26/23 Q1017
ROMY 190700Z 20016KT 9999 VCSH FEW009 SCT016 FEW020TCU BKN060 25/23 Q1017
ROMY 190600Z 20016KT 9999 VCSH FEW009 BKN017 FEW020TCU BKN040 26/23 Q1017
ROMY 190500Z 20017KT 9999 VCSH SCT011 FEW020TCU BKN040 BKN090 27/23 Q1018
ROMY 190400Z 21016KT 9999 VCSH SCT012 FEW025TCU BKN090 27/23 Q1019
ROMY 190300Z 20020KT 9999 SCT019 27/23 Q1018
ROMY 190200Z 20020KT 9999 FEW021 SCT038 26/22 Q1019
ROMY 190100Z 20019KT 9999 VCSH FEW014 FEW025TCU SCT060 25/22 Q1019
ROMY 190000Z 19019KT 9999 VCSH FEW014 25/22 Q1018
ROMY 182300Z 19012KT 9999 FEW016 SCT032 24/22 Q1018
ROMY 182200Z 18015KT 9999 FEW015 SCT040 23/22 Q1017
ROMY 182130Z 18014KT 9999 FEW015 SCT045 24/22 Q1016
ROMY 181100Z 17008KT 9999 FEW019 SCT/// 23/21 Q1017
ROMY 181000Z 16007KT 9999 FEW019 BKN/// 23/22 Q1016
ROMY 180900Z 15009KT 9999 FEW019 SCT070 BKN/// 23/21 Q1016
ROMY 180800Z 15010KT 9999 FEW019 BKN070 23/21 Q1016
ROMY 180700Z 15013KT 120V180 9999 FEW010 BKN050 BKN070 24/20 Q1016